sensor_id;sensor_type;location;lat;lon;timestamp;P1;durP1;ratioP1;P2;durP2;ratioP2
52432;SDS011;38352;53.244;6.594;2022-11-13T00:00:53;27.90;;;19.35;;
52432;SDS011;38352;53.244;6.594;2022-11-13T00:03:19;27.45;;;18.63;;
52432;SDS011;38352;53.244;6.594;2022-11-13T00:05:45;28.77;;;19.33;;
52432;SDS011;38352;53.244;6.594;2022-11-13T00:08:11;32.60;;;21.05;;
52432;SDS011;38352;53.244;6.594;2022-11-13T00:10:37;27.70;;;20.17;;
52432;SDS011;38352;53.244;6.594;2022-11-13T00:13:03;31.20;;;21.05;;
52432;SDS011;38352;53.244;6.594;2022-11-13T00:15:29;27.33;;;19.80;;
52432;SDS011;38352;53.244;6.594;2022-11-13T00:17:58;31.52;;;20.92;;
52432;SDS011;38352;53.244;6.594;2022-11-13T00:20:25;27.48;;;18.95;;
52432;SDS011;38352;53.244;6.594;2022-11-13T00:22:51;30.33;;;19.85;;
52432;SDS011;38352;53.244;6.594;2022-11-13T00:25:17;31.02;;;20.55;;
52432;SDS011;38352;53.244;6.594;2022-11-13T00:27:43;28.80;;;19.98;;
52432;SDS011;38352;53.244;6.594;2022-11-13T00:30:09;30.30;;;21.42;;
52432;SDS011;38352;53.244;6.594;2022-11-13T00:32:35;32.47;;;21.02;;
52432;SDS011;38352;53.244;6.594;2022-11-13T00:35:02;28.00;;;20.48;;
52432;SDS011;38352;53.244;6.594;2022-11-13T00:37:28;29.00;;;22.10;;
52432;SDS011;38352;53.244;6.594;2022-11-13T00:39:54;29.45;;;21.48;;
52432;SDS011;38352;53.244;6.594;2022-11-13T00:42:20;33.08;;;22.25;;
52432;SDS011;38352;53.244;6.594;2022-11-13T00:44:46;33.92;;;23.15;;
52432;SDS011;38352;53.244;6.594;2022-11-13T00:47:12;31.27;;;22.58;;
52432;SDS011;38352;53.244;6.594;2022-11-13T00:49:38;31.92;;;22.40;;
52432;SDS011;38352;53.244;6.594;2022-11-13T00:52:05;30.73;;;21.77;;
52432;SDS011;38352;53.244;6.594;2022-11-13T00:54:31;31.48;;;21.95;;
52432;SDS011;38352;53.244;6.594;2022-11-13T00:56:57;33.10;;;22.10;;
52432;SDS011;38352;53.244;6.594;2022-11-13T00:59:23;31.83;;;22.50;;
52432;SDS011;38352;53.244;6.594;2022-11-13T01:01:49;31.83;;;22.65;;
52432;SDS011;38352;53.244;6.594;2022-11-13T01:04:15;33.30;;;22.27;;
52432;SDS011;38352;53.244;6.594;2022-11-13T01:06:43;32.95;;;23.67;;
52432;SDS011;38352;53.244;6.594;2022-11-13T01:09:10;31.25;;;22.20;;
52432;SDS011;38352;53.244;6.594;2022-11-13T01:11:36;33.50;;;22.58;;
52432;SDS011;38352;53.244;6.594;2022-11-13T01:14:02;29.25;;;22.33;;
52432;SDS011;38352;53.244;6.594;2022-11-13T01:16:28;31.42;;;21.42;;
52432;SDS011;38352;53.244;6.594;2022-11-13T01:18:54;31.05;;;21.13;;
52432;SDS011;38352;53.244;6.594;2022-11-13T01:21:22;33.22;;;22.88;;
52432;SDS011;38352;53.244;6.594;2022-11-13T01:23:49;35.28;;;24.15;;
52432;SDS011;38352;53.244;6.594;2022-11-13T01:26:19;34.35;;;23.08;;
52432;SDS011;38352;53.244;6.594;2022-11-13T01:28:46;32.95;;;23.02;;
52432;SDS011;38352;53.244;6.594;2022-11-13T01:31:16;34.60;;;23.90;;
52432;SDS011;38352;53.244;6.594;2022-11-13T01:33:43;44.45;;;24.83;;
52432;SDS011;38352;53.244;6.594;2022-11-13T01:36:13;34.33;;;23.13;;
52432;SDS011;38352;53.244;6.594;2022-11-13T01:38:40;35.38;;;23.02;;
52432;SDS011;38352;53.244;6.594;2022-11-13T01:41:06;35.85;;;23.58;;
52432;SDS011;38352;53.244;6.594;2022-11-13T01:43:37;35.63;;;23.50;;
52432;SDS011;38352;53.244;6.594;2022-11-13T01:48:36;34.67;;;23.58;;
52432;SDS011;38352;53.244;6.594;2022-11-13T01:53:29;35.88;;;23.90;;
52432;SDS011;38352;53.244;6.594;2022-11-13T01:55:55;37.05;;;23.27;;
52432;SDS011;38352;53.244;6.594;2022-11-13T01:58:21;36.22;;;23.83;;
52432;SDS011;38352;53.244;6.594;2022-11-13T02:00:47;34.88;;;22.77;;
52432;SDS011;38352;53.244;6.594;2022-11-13T02:03:13;36.67;;;22.15;;
52432;SDS011;38352;53.244;6.594;2022-11-13T02:05:40;31.92;;;22.15;;
52432;SDS011;38352;53.244;6.594;2022-11-13T02:08:06;33.00;;;23.05;;
52432;SDS011;38352;53.244;6.594;2022-11-13T02:10:32;33.17;;;22.70;;
52432;SDS011;38352;53.244;6.594;2022-11-13T02:12:58;33.03;;;22.45;;
52432;SDS011;38352;53.244;6.594;2022-11-13T02:15:25;35.45;;;22.95;;
52432;SDS011;38352;53.244;6.594;2022-11-13T02:17:55;33.85;;;23.10;;
52432;SDS011;38352;53.244;6.594;2022-11-13T02:20:25;34.50;;;22.67;;
52432;SDS011;38352;53.244;6.594;2022-11-13T02:23:06;33.13;;;22.33;;
52432;SDS011;38352;53.244;6.594;2022-11-13T02:25:36;29.00;;;20.27;;
52432;SDS011;38352;53.244;6.594;2022-11-13T02:28:02;34.40;;;22.67;;
52432;SDS011;38352;53.244;6.594;2022-11-13T02:30:30;32.47;;;21.75;;
52432;SDS011;38352;53.244;6.594;2022-11-13T02:32:57;31.98;;;21.73;;
52432;SDS011;38352;53.244;6.594;2022-11-13T02:35:26;33.92;;;21.58;;
52432;SDS011;38352;53.244;6.594;2022-11-13T02:37:53;28.75;;;20.42;;
52432;SDS011;38352;53.244;6.594;2022-11-13T02:40:19;31.70;;;20.90;;
52432;SDS011;38352;53.244;6.594;2022-11-13T02:42:45;28.58;;;20.85;;
52432;SDS011;38352;53.244;6.594;2022-11-13T02:45:12;32.50;;;22.02;;
52432;SDS011;38352;53.244;6.594;2022-11-13T02:47:38;31.20;;;21.20;;
52432;SDS011;38352;53.244;6.594;2022-11-13T02:50:04;34.63;;;23.52;;
52432;SDS011;38352;53.244;6.594;2022-11-13T02:52:31;30.92;;;21.00;;
52432;SDS011;38352;53.244;6.594;2022-11-13T02:54:57;33.10;;;21.65;;
52432;SDS011;38352;53.244;6.594;2022-11-13T02:57:23;32.53;;;21.42;;
52432;SDS011;38352;53.244;6.594;2022-11-13T02:59:49;30.30;;;21.35;;
52432;SDS011;38352;53.244;6.594;2022-11-13T03:02:15;30.52;;;22.38;;
52432;SDS011;38352;53.244;6.594;2022-11-13T03:04:41;35.17;;;21.98;;
52432;SDS011;38352;53.244;6.594;2022-11-13T03:07:07;30.20;;;22.13;;
52432;SDS011;38352;53.244;6.594;2022-11-13T03:09:33;30.00;;;21.58;;
52432;SDS011;38352;53.244;6.594;2022-11-13T03:11:59;34.38;;;23.80;;
52432;SDS011;38352;53.244;6.594;2022-11-13T03:14:25;29.45;;;21.92;;
52432;SDS011;38352;53.244;6.594;2022-11-13T03:16:51;34.70;;;21.67;;
52432;SDS011;38352;53.244;6.594;2022-11-13T03:19:17;32.55;;;22.58;;
52432;SDS011;38352;53.244;6.594;2022-11-13T03:21:43;32.92;;;21.90;;
52432;SDS011;38352;53.244;6.594;2022-11-13T03:24:09;32.58;;;23.85;;
52432;SDS011;38352;53.244;6.594;2022-11-13T03:26:35;30.85;;;22.20;;
52432;SDS011;38352;53.244;6.594;2022-11-13T03:29:02;29.83;;;21.75;;
52432;SDS011;38352;53.244;6.594;2022-11-13T03:31:28;31.85;;;21.75;;
52432;SDS011;38352;53.244;6.594;2022-11-13T03:33:54;28.80;;;20.80;;
52432;SDS011;38352;53.244;6.594;2022-11-13T03:36:20;29.83;;;21.17;;
52432;SDS011;38352;53.244;6.594;2022-11-13T03:38:46;29.98;;;22.63;;
52432;SDS011;38352;53.244;6.594;2022-11-13T03:41:12;30.73;;;20.73;;
52432;SDS011;38352;53.244;6.594;2022-11-13T03:43:41;28.95;;;21.20;;
52432;SDS011;38352;53.244;6.594;2022-11-13T03:46:07;30.23;;;20.80;;
52432;SDS011;38352;53.244;6.594;2022-11-13T03:48:33;32.15;;;21.27;;
52432;SDS011;38352;53.244;6.594;2022-11-13T03:51:00;29.40;;;21.23;;
52432;SDS011;38352;53.244;6.594;2022-11-13T03:53:26;29.25;;;20.45;;
52432;SDS011;38352;53.244;6.594;2022-11-13T03:55:52;29.85;;;20.42;;
52432;SDS011;38352;53.244;6.594;2022-11-13T03:58:18;31.85;;;20.95;;
52432;SDS011;38352;53.244;6.594;2022-11-13T04:00:45;32.67;;;21.73;;
52432;SDS011;38352;53.244;6.594;2022-11-13T04:03:11;31.20;;;20.65;;
52432;SDS011;38352;53.244;6.594;2022-11-13T04:05:38;30.73;;;20.38;;
52432;SDS011;38352;53.244;6.594;2022-11-13T04:08:04;31.67;;;20.10;;
52432;SDS011;38352;53.244;6.594;2022-11-13T04:10:30;29.52;;;20.00;;
52432;SDS011;38352;53.244;6.594;2022-11-13T04:12:57;30.10;;;20.98;;
52432;SDS011;38352;53.244;6.594;2022-11-13T04:15:23;31.67;;;19.75;;
52432;SDS011;38352;53.244;6.594;2022-11-13T04:17:49;30.70;;;20.38;;
52432;SDS011;38352;53.244;6.594;2022-11-13T04:20:15;29.08;;;20.60;;
52432;SDS011;38352;53.244;6.594;2022-11-13T04:22:41;29.58;;;19.48;;
52432;SDS011;38352;53.244;6.594;2022-11-13T04:25:07;29.55;;;19.58;;
52432;SDS011;38352;53.244;6.594;2022-11-13T04:27:33;27.70;;;19.92;;
52432;SDS011;38352;53.244;6.594;2022-11-13T04:29:59;27.85;;;19.48;;
52432;SDS011;38352;53.244;6.594;2022-11-13T04:32:26;28.13;;;19.67;;
52432;SDS011;38352;53.244;6.594;2022-11-13T04:34:52;28.67;;;19.52;;
52432;SDS011;38352;53.244;6.594;2022-11-13T04:37:18;27.58;;;19.50;;
52432;SDS011;38352;53.244;6.594;2022-11-13T04:39:44;29.50;;;19.15;;
52432;SDS011;38352;53.244;6.594;2022-11-13T04:42:10;28.77;;;19.35;;
52432;SDS011;38352;53.244;6.594;2022-11-13T04:44:55;27.50;;;18.75;;
52432;SDS011;38352;53.244;6.594;2022-11-13T04:47:21;31.50;;;18.23;;
52432;SDS011;38352;53.244;6.594;2022-11-13T04:49:47;26.58;;;18.08;;
52432;SDS011;38352;53.244;6.594;2022-11-13T04:52:13;26.98;;;19.33;;
52432;SDS011;38352;53.244;6.594;2022-11-13T04:54:39;26.27;;;18.83;;
52432;SDS011;38352;53.244;6.594;2022-11-13T04:57:05;26.55;;;18.98;;
52432;SDS011;38352;53.244;6.594;2022-11-13T04:59:31;28.13;;;19.42;;
52432;SDS011;38352;53.244;6.594;2022-11-13T05:01:58;29.58;;;19.90;;
52432;SDS011;38352;53.244;6.594;2022-11-13T05:04:24;29.65;;;19.38;;
52432;SDS011;38352;53.244;6.594;2022-11-13T05:06:50;27.80;;;19.42;;
52432;SDS011;38352;53.244;6.594;2022-11-13T05:09:16;27.30;;;18.40;;
52432;SDS011;38352;53.244;6.594;2022-11-13T05:11:42;31.45;;;20.23;;
52432;SDS011;38352;53.244;6.594;2022-11-13T05:14:10;27.58;;;19.08;;
52432;SDS011;38352;53.244;6.594;2022-11-13T05:16:36;28.17;;;18.77;;
52432;SDS011;38352;53.244;6.594;2022-11-13T05:19:02;27.63;;;17.98;;
52432;SDS011;38352;53.244;6.594;2022-11-13T05:21:32;26.20;;;18.95;;
52432;SDS011;38352;53.244;6.594;2022-11-13T05:23:58;25.45;;;18.27;;
52432;SDS011;38352;53.244;6.594;2022-11-13T05:26:24;25.23;;;18.33;;
52432;SDS011;38352;53.244;6.594;2022-11-13T05:28:51;24.90;;;17.90;;
52432;SDS011;38352;53.244;6.594;2022-11-13T05:31:17;26.80;;;18.67;;
52432;SDS011;38352;53.244;6.594;2022-11-13T05:33:43;27.30;;;18.60;;
52432;SDS011;38352;53.244;6.594;2022-11-13T05:36:10;24.98;;;17.02;;
52432;SDS011;38352;53.244;6.594;2022-11-13T05:38:37;25.75;;;18.17;;
52432;SDS011;38352;53.244;6.594;2022-11-13T05:41:04;26.02;;;17.25;;
52432;SDS011;38352;53.244;6.594;2022-11-13T05:43:31;25.20;;;17.23;;
52432;SDS011;38352;53.244;6.594;2022-11-13T05:45:58;27.30;;;17.30;;
52432;SDS011;38352;53.244;6.594;2022-11-13T05:48:24;24.88;;;17.15;;
52432;SDS011;38352;53.244;6.594;2022-11-13T05:50:50;23.80;;;16.92;;
52432;SDS011;38352;53.244;6.594;2022-11-13T05:53:16;27.52;;;17.25;;
52432;SDS011;38352;53.244;6.594;2022-11-13T05:55:42;25.20;;;17.30;;
52432;SDS011;38352;53.244;6.594;2022-11-13T05:58:08;24.15;;;17.08;;
52432;SDS011;38352;53.244;6.594;2022-11-13T06:00:35;24.08;;;16.85;;
52432;SDS011;38352;53.244;6.594;2022-11-13T06:03:01;25.25;;;18.70;;
52432;SDS011;38352;53.244;6.594;2022-11-13T06:05:28;25.83;;;16.60;;
52432;SDS011;38352;53.244;6.594;2022-11-13T06:07:54;27.13;;;17.90;;
52432;SDS011;38352;53.244;6.594;2022-11-13T06:10:20;29.55;;;17.55;;
52432;SDS011;38352;53.244;6.594;2022-11-13T06:12:46;27.52;;;18.00;;
52432;SDS011;38352;53.244;6.594;2022-11-13T06:15:12;27.13;;;17.88;;
52432;SDS011;38352;53.244;6.594;2022-11-13T06:17:38;36.83;;;18.30;;
52432;SDS011;38352;53.244;6.594;2022-11-13T06:20:04;26.83;;;18.08;;
52432;SDS011;38352;53.244;6.594;2022-11-13T06:22:30;25.15;;;17.42;;
52432;SDS011;38352;53.244;6.594;2022-11-13T06:24:56;24.85;;;17.48;;
52432;SDS011;38352;53.244;6.594;2022-11-13T06:27:22;26.80;;;17.10;;
52432;SDS011;38352;53.244;6.594;2022-11-13T06:29:48;26.10;;;16.45;;
52432;SDS011;38352;53.244;6.594;2022-11-13T06:32:14;24.75;;;16.50;;
52432;SDS011;38352;53.244;6.594;2022-11-13T06:34:40;23.45;;;15.70;;
52432;SDS011;38352;53.244;6.594;2022-11-13T06:37:06;24.20;;;16.05;;
52432;SDS011;38352;53.244;6.594;2022-11-13T06:39:32;23.15;;;15.52;;
52432;SDS011;38352;53.244;6.594;2022-11-13T06:41:58;24.77;;;16.75;;
52432;SDS011;38352;53.244;6.594;2022-11-13T06:44:24;21.85;;;15.30;;
52432;SDS011;38352;53.244;6.594;2022-11-13T06:46:50;24.83;;;16.55;;
52432;SDS011;38352;53.244;6.594;2022-11-13T06:49:16;25.35;;;15.48;;
52432;SDS011;38352;53.244;6.594;2022-11-13T06:51:42;21.85;;;14.55;;
52432;SDS011;38352;53.244;6.594;2022-11-13T06:54:08;23.65;;;14.55;;
52432;SDS011;38352;53.244;6.594;2022-11-13T06:56:34;22.52;;;14.93;;
52432;SDS011;38352;53.244;6.594;2022-11-13T06:59:01;22.92;;;15.20;;
52432;SDS011;38352;53.244;6.594;2022-11-13T07:01:27;23.40;;;15.60;;
52432;SDS011;38352;53.244;6.594;2022-11-13T07:03:53;26.08;;;15.38;;
52432;SDS011;38352;53.244;6.594;2022-11-13T07:06:20;23.75;;;14.95;;
52432;SDS011;38352;53.244;6.594;2022-11-13T07:08:47;25.25;;;15.40;;
52432;SDS011;38352;53.244;6.594;2022-11-13T07:11:15;22.27;;;14.30;;
52432;SDS011;38352;53.244;6.594;2022-11-13T07:13:41;24.15;;;15.55;;
52432;SDS011;38352;53.244;6.594;2022-11-13T07:16:08;22.67;;;15.30;;
52432;SDS011;38352;53.244;6.594;2022-11-13T07:18:35;21.42;;;15.48;;
52432;SDS011;38352;53.244;6.594;2022-11-13T07:21:05;23.05;;;15.13;;
52432;SDS011;38352;53.244;6.594;2022-11-13T07:23:32;25.95;;;15.90;;
52432;SDS011;38352;53.244;6.594;2022-11-13T07:25:58;23.35;;;16.05;;
52432;SDS011;38352;53.244;6.594;2022-11-13T07:28:24;26.45;;;15.90;;
52432;SDS011;38352;53.244;6.594;2022-11-13T07:30:50;22.13;;;15.90;;
52432;SDS011;38352;53.244;6.594;2022-11-13T07:33:16;24.73;;;16.52;;
52432;SDS011;38352;53.244;6.594;2022-11-13T07:35:42;27.73;;;15.75;;
52432;SDS011;38352;53.244;6.594;2022-11-13T07:38:08;26.13;;;16.90;;
52432;SDS011;38352;53.244;6.594;2022-11-13T07:40:34;26.23;;;17.17;;
52432;SDS011;38352;53.244;6.594;2022-11-13T07:43:01;25.38;;;17.85;;
52432;SDS011;38352;53.244;6.594;2022-11-13T07:45:28;27.17;;;17.27;;
52432;SDS011;38352;53.244;6.594;2022-11-13T07:47:57;24.15;;;17.15;;
52432;SDS011;38352;53.244;6.594;2022-11-13T07:50:24;23.95;;;16.80;;
52432;SDS011;38352;53.244;6.594;2022-11-13T07:52:53;26.73;;;17.80;;
52432;SDS011;38352;53.244;6.594;2022-11-13T07:55:19;25.42;;;17.38;;
52432;SDS011;38352;53.244;6.594;2022-11-13T07:57:45;23.98;;;17.20;;
52432;SDS011;38352;53.244;6.594;2022-11-13T08:00:12;30.70;;;18.25;;
52432;SDS011;38352;53.244;6.594;2022-11-13T08:02:38;28.63;;;17.80;;
52432;SDS011;38352;53.244;6.594;2022-11-13T08:05:04;27.13;;;16.92;;
52432;SDS011;38352;53.244;6.594;2022-11-13T08:07:30;26.70;;;18.10;;
52432;SDS011;38352;53.244;6.594;2022-11-13T08:09:56;25.30;;;17.75;;
52432;SDS011;38352;53.244;6.594;2022-11-13T08:12:22;26.10;;;16.88;;
52432;SDS011;38352;53.244;6.594;2022-11-13T08:14:48;25.25;;;17.23;;
52432;SDS011;38352;53.244;6.594;2022-11-13T08:17:14;25.88;;;17.00;;
52432;SDS011;38352;53.244;6.594;2022-11-13T08:19:40;24.98;;;16.30;;
52432;SDS011;38352;53.244;6.594;2022-11-13T08:22:06;27.77;;;17.15;;
52432;SDS011;38352;53.244;6.594;2022-11-13T08:24:32;22.30;;;16.38;;
52432;SDS011;38352;53.244;6.594;2022-11-13T08:26:58;25.55;;;16.63;;
52432;SDS011;38352;53.244;6.594;2022-11-13T08:29:24;24.20;;;16.20;;
52432;SDS011;38352;53.244;6.594;2022-11-13T08:31:50;25.17;;;17.00;;
52432;SDS011;38352;53.244;6.594;2022-11-13T08:34:16;22.05;;;16.33;;
52432;SDS011;38352;53.244;6.594;2022-11-13T08:36:42;21.98;;;16.40;;
52432;SDS011;38352;53.244;6.594;2022-11-13T08:39:08;23.63;;;15.63;;
52432;SDS011;38352;53.244;6.594;2022-11-13T08:41:34;25.15;;;16.23;;
52432;SDS011;38352;53.244;6.594;2022-11-13T08:44:00;25.70;;;16.33;;
52432;SDS011;38352;53.244;6.594;2022-11-13T08:46:27;22.42;;;15.15;;
52432;SDS011;38352;53.244;6.594;2022-11-13T08:48:53;23.42;;;15.43;;
52432;SDS011;38352;53.244;6.594;2022-11-13T08:51:19;25.42;;;16.88;;
52432;SDS011;38352;53.244;6.594;2022-11-13T08:53:45;27.00;;;16.42;;
52432;SDS011;38352;53.244;6.594;2022-11-13T08:56:11;28.67;;;17.33;;
52432;SDS011;38352;53.244;6.594;2022-11-13T08:58:37;22.55;;;15.00;;
52432;SDS011;38352;53.244;6.594;2022-11-13T09:01:04;21.27;;;14.75;;
52432;SDS011;38352;53.244;6.594;2022-11-13T09:03:30;22.73;;;15.70;;
52432;SDS011;38352;53.244;6.594;2022-11-13T09:05:56;22.13;;;15.85;;
52432;SDS011;38352;53.244;6.594;2022-11-13T09:08:22;22.83;;;16.55;;
52432;SDS011;38352;53.244;6.594;2022-11-13T09:10:48;22.30;;;15.55;;
52432;SDS011;38352;53.244;6.594;2022-11-13T09:13:14;20.63;;;15.57;;
52432;SDS011;38352;53.244;6.594;2022-11-13T09:15:40;23.60;;;14.73;;
52432;SDS011;38352;53.244;6.594;2022-11-13T09:18:06;24.60;;;15.27;;
52432;SDS011;38352;53.244;6.594;2022-11-13T09:20:32;21.33;;;14.88;;
52432;SDS011;38352;53.244;6.594;2022-11-13T09:22:59;21.52;;;15.23;;
52432;SDS011;38352;53.244;6.594;2022-11-13T09:25:26;19.38;;;14.82;;
52432;SDS011;38352;53.244;6.594;2022-11-13T09:27:53;19.85;;;13.95;;
52432;SDS011;38352;53.244;6.594;2022-11-13T09:30:20;20.30;;;14.60;;
52432;SDS011;38352;53.244;6.594;2022-11-13T09:32:46;22.65;;;14.52;;
52432;SDS011;38352;53.244;6.594;2022-11-13T09:35:12;23.05;;;15.57;;
52432;SDS011;38352;53.244;6.594;2022-11-13T09:37:38;22.15;;;15.02;;
52432;SDS011;38352;53.244;6.594;2022-11-13T09:40:04;21.25;;;15.05;;
52432;SDS011;38352;53.244;6.594;2022-11-13T09:42:31;23.05;;;14.93;;
52432;SDS011;38352;53.244;6.594;2022-11-13T09:44:59;18.38;;;13.35;;
52432;SDS011;38352;53.244;6.594;2022-11-13T09:47:30;17.83;;;13.38;;
52432;SDS011;38352;53.244;6.594;2022-11-13T09:50:05;18.42;;;12.82;;
52432;SDS011;38352;53.244;6.594;2022-11-13T09:52:36;20.08;;;13.20;;
52432;SDS011;38352;53.244;6.594;2022-11-13T09:55:02;21.05;;;13.25;;
52432;SDS011;38352;53.244;6.594;2022-11-13T09:59:59;18.77;;;13.30;;
52432;SDS011;38352;53.244;6.594;2022-11-13T10:05:20;19.75;;;12.70;;
52432;SDS011;38352;53.244;6.594;2022-11-13T10:12:55;18.52;;;13.10;;
52432;SDS011;38352;53.244;6.594;2022-11-13T10:15:21;18.10;;;12.55;;
52432;SDS011;38352;53.244;6.594;2022-11-13T10:17:52;18.52;;;13.35;;
52432;SDS011;38352;53.244;6.594;2022-11-13T10:20:22;20.65;;;13.88;;
52432;SDS011;38352;53.244;6.594;2022-11-13T10:23:00;18.80;;;13.27;;
52432;SDS011;38352;53.244;6.594;2022-11-13T10:25:30;17.67;;;13.85;;
52432;SDS011;38352;53.244;6.594;2022-11-13T10:27:58;17.92;;;13.18;;
52432;SDS011;38352;53.244;6.594;2022-11-13T10:30:25;18.48;;;13.05;;
52432;SDS011;38352;53.244;6.594;2022-11-13T10:32:52;16.80;;;12.98;;
52432;SDS011;38352;53.244;6.594;2022-11-13T10:35:25;19.35;;;12.63;;
52432;SDS011;38352;53.244;6.594;2022-11-13T10:40:23;18.15;;;12.82;;
52432;SDS011;38352;53.244;6.594;2022-11-13T10:42:49;17.27;;;11.95;;
52432;SDS011;38352;53.244;6.594;2022-11-13T10:45:15;16.75;;;12.10;;
52432;SDS011;38352;53.244;6.594;2022-11-13T10:47:44;16.70;;;12.20;;
52432;SDS011;38352;53.244;6.594;2022-11-13T10:50:18;18.63;;;12.27;;
52432;SDS011;38352;53.244;6.594;2022-11-13T10:52:46;17.27;;;12.52;;
52432;SDS011;38352;53.244;6.594;2022-11-13T10:57:57;19.27;;;12.90;;
52432;SDS011;38352;53.244;6.594;2022-11-13T11:02:56;19.42;;;12.60;;
52432;SDS011;38352;53.244;6.594;2022-11-13T11:05:23;18.98;;;12.70;;
52432;SDS011;38352;53.244;6.594;2022-11-13T11:07:50;17.35;;;12.45;;
52432;SDS011;38352;53.244;6.594;2022-11-13T11:12:55;18.30;;;12.65;;
52432;SDS011;38352;53.244;6.594;2022-11-13T11:18:13;18.48;;;12.15;;
52432;SDS011;38352;53.244;6.594;2022-11-13T11:20:46;17.45;;;11.77;;
52432;SDS011;38352;53.244;6.594;2022-11-13T11:33:52;18.38;;;12.63;;
52432;SDS011;38352;53.244;6.594;2022-11-13T11:41:19;16.25;;;11.82;;
52432;SDS011;38352;53.244;6.594;2022-11-13T11:46:27;15.48;;;11.25;;
52432;SDS011;38352;53.244;6.594;2022-11-13T11:48:58;15.02;;;11.50;;
52432;SDS011;38352;53.244;6.594;2022-11-13T11:51:33;18.08;;;11.90;;
52432;SDS011;38352;53.244;6.594;2022-11-13T11:56:45;14.65;;;11.35;;
52432;SDS011;38352;53.244;6.594;2022-11-13T12:01:49;14.88;;;10.32;;
52432;SDS011;38352;53.244;6.594;2022-11-13T12:06:56;16.50;;;10.68;;
52432;SDS011;38352;53.244;6.594;2022-11-13T12:17:13;11.07;;;9.30;;
52432;SDS011;38352;53.244;6.594;2022-11-13T12:22:16;11.38;;;9.18;;
52432;SDS011;38352;53.244;6.594;2022-11-13T12:24:49;12.27;;;9.27;;
52432;SDS011;38352;53.244;6.594;2022-11-13T12:27:30;11.30;;;8.63;;
52432;SDS011;38352;53.244;6.594;2022-11-13T12:30:13;12.15;;;9.25;;
52432;SDS011;38352;53.244;6.594;2022-11-13T12:32:51;12.38;;;9.18;;
52432;SDS011;38352;53.244;6.594;2022-11-13T12:35:22;12.00;;;8.95;;
52432;SDS011;38352;53.244;6.594;2022-11-13T12:40:18;11.90;;;9.18;;
52432;SDS011;38352;53.244;6.594;2022-11-13T12:45:15;12.23;;;9.10;;
52432;SDS011;38352;53.244;6.594;2022-11-13T12:47:43;12.20;;;8.65;;
52432;SDS011;38352;53.244;6.594;2022-11-13T12:50:27;11.85;;;8.98;;
52432;SDS011;38352;53.244;6.594;2022-11-13T12:53:00;12.35;;;9.23;;
52432;SDS011;38352;53.244;6.594;2022-11-13T12:57:53;15.32;;;9.70;;
52432;SDS011;38352;53.244;6.594;2022-11-13T13:00:24;16.17;;;9.55;;
52432;SDS011;38352;53.244;6.594;2022-11-13T13:03:01;12.50;;;9.10;;
52432;SDS011;38352;53.244;6.594;2022-11-13T13:10:39;14.63;;;9.48;;
52432;SDS011;38352;53.244;6.594;2022-11-13T13:13:16;10.63;;;8.80;;
52432;SDS011;38352;53.244;6.594;2022-11-13T13:15:45;12.80;;;9.27;;
52432;SDS011;38352;53.244;6.594;2022-11-13T13:20:44;14.02;;;10.13;;
52432;SDS011;38352;53.244;6.594;2022-11-13T13:23:11;14.60;;;9.55;;
52432;SDS011;38352;53.244;6.594;2022-11-13T13:25:38;13.27;;;10.38;;
52432;SDS011;38352;53.244;6.594;2022-11-13T13:31:21;14.23;;;10.23;;
52432;SDS011;38352;53.244;6.594;2022-11-13T13:36:42;13.65;;;9.23;;
52432;SDS011;38352;53.244;6.594;2022-11-13T13:41:32;11.70;;;9.75;;
52432;SDS011;38352;53.244;6.594;2022-11-13T13:46:45;13.35;;;10.18;;
52432;SDS011;38352;53.244;6.594;2022-11-13T13:49:13;14.15;;;10.75;;
52432;SDS011;38352;53.244;6.594;2022-11-13T13:51:41;13.00;;;10.25;;
52432;SDS011;38352;53.244;6.594;2022-11-13T13:54:08;12.27;;;9.85;;
52432;SDS011;38352;53.244;6.594;2022-11-13T13:56:41;15.98;;;10.73;;
52432;SDS011;38352;53.244;6.594;2022-11-13T13:59:17;14.68;;;10.88;;
52432;SDS011;38352;53.244;6.594;2022-11-13T14:01:54;13.73;;;10.55;;
52432;SDS011;38352;53.244;6.594;2022-11-13T14:04:22;14.77;;;10.30;;
52432;SDS011;38352;53.244;6.594;2022-11-13T14:06:53;16.38;;;10.90;;
52432;SDS011;38352;53.244;6.594;2022-11-13T14:09:20;13.20;;;10.13;;
52432;SDS011;38352;53.244;6.594;2022-11-13T14:11:47;15.95;;;11.15;;
52432;SDS011;38352;53.244;6.594;2022-11-13T14:14:21;15.82;;;11.55;;
52432;SDS011;38352;53.244;6.594;2022-11-13T14:16:51;14.75;;;10.52;;
52432;SDS011;38352;53.244;6.594;2022-11-13T14:19:18;16.85;;;11.30;;
52432;SDS011;38352;53.244;6.594;2022-11-13T14:21:45;16.75;;;10.82;;
52432;SDS011;38352;53.244;6.594;2022-11-13T14:24:14;15.30;;;11.07;;
52432;SDS011;38352;53.244;6.594;2022-11-13T14:26:41;16.23;;;11.32;;
52432;SDS011;38352;53.244;6.594;2022-11-13T14:29:18;15.80;;;11.98;;
52432;SDS011;38352;53.244;6.594;2022-11-13T14:31:46;15.25;;;11.32;;
52432;SDS011;38352;53.244;6.594;2022-11-13T14:34:15;18.55;;;11.82;;
52432;SDS011;38352;53.244;6.594;2022-11-13T14:36:42;15.77;;;11.82;;
52432;SDS011;38352;53.244;6.594;2022-11-13T14:42:12;26.90;;;13.43;;
52432;SDS011;38352;53.244;6.594;2022-11-13T14:44:39;17.73;;;11.65;;
52432;SDS011;38352;53.244;6.594;2022-11-13T14:47:05;14.43;;;10.73;;
52432;SDS011;38352;53.244;6.594;2022-11-13T14:49:45;16.58;;;11.65;;
52432;SDS011;38352;53.244;6.594;2022-11-13T14:52:24;15.70;;;11.25;;
52432;SDS011;38352;53.244;6.594;2022-11-13T14:55:35;16.48;;;11.50;;
52432;SDS011;38352;53.244;6.594;2022-11-13T14:57:48;14.55;;;11.40;;
52432;SDS011;38352;53.244;6.594;2022-11-13T15:00:17;14.63;;;11.05;;
52432;SDS011;38352;53.244;6.594;2022-11-13T15:02:43;19.20;;;11.25;;
52432;SDS011;38352;53.244;6.594;2022-11-13T15:05:09;17.17;;;10.77;;
52432;SDS011;38352;53.244;6.594;2022-11-13T15:07:38;18.92;;;12.20;;
52432;SDS011;38352;53.244;6.594;2022-11-13T15:10:04;15.35;;;11.15;;
52432;SDS011;38352;53.244;6.594;2022-11-13T15:12:31;15.82;;;10.88;;
52432;SDS011;38352;53.244;6.594;2022-11-13T15:14:57;15.48;;;11.10;;
52432;SDS011;38352;53.244;6.594;2022-11-13T15:17:23;14.27;;;10.38;;
52432;SDS011;38352;53.244;6.594;2022-11-13T15:19:52;16.83;;;11.70;;
52432;SDS011;38352;53.244;6.594;2022-11-13T15:22:18;16.13;;;11.07;;
52432;SDS011;38352;53.244;6.594;2022-11-13T15:24:45;16.38;;;10.15;;
52432;SDS011;38352;53.244;6.594;2022-11-13T15:27:14;17.23;;;11.40;;
52432;SDS011;38352;53.244;6.594;2022-11-13T15:29:40;18.00;;;12.05;;
52432;SDS011;38352;53.244;6.594;2022-11-13T15:32:08;18.23;;;11.98;;
52432;SDS011;38352;53.244;6.594;2022-11-13T15:34:34;17.25;;;11.98;;
52432;SDS011;38352;53.244;6.594;2022-11-13T15:37:00;15.98;;;10.98;;
52432;SDS011;38352;53.244;6.594;2022-11-13T15:39:26;17.23;;;11.60;;
52432;SDS011;38352;53.244;6.594;2022-11-13T15:41:52;17.02;;;12.13;;
52432;SDS011;38352;53.244;6.594;2022-11-13T15:44:19;16.83;;;11.90;;
52432;SDS011;38352;53.244;6.594;2022-11-13T15:46:45;18.40;;;12.18;;
52432;SDS011;38352;53.244;6.594;2022-11-13T15:49:11;17.77;;;12.82;;
52432;SDS011;38352;53.244;6.594;2022-11-13T15:54:14;17.58;;;12.52;;
52432;SDS011;38352;53.244;6.594;2022-11-13T15:56:41;16.90;;;12.38;;
52432;SDS011;38352;53.244;6.594;2022-11-13T15:59:09;19.63;;;14.20;;
52432;SDS011;38352;53.244;6.594;2022-11-13T16:01:36;19.05;;;13.35;;